CYBD

Details ICAO CYBD (QBC)
Name Bella Coola
Region Canada
Timezone Unknown (UTC+0.0)
Plans Departing 54
Arriving 69
Stats Elevation 117 ft / 36 m (AMSL)
Location 52.387631° -126.595509°
Runways 1
Magnetic Variation 17.463° E
Sunrise 2018-05-21 12:23:22 UTC / 2018-05-21 12:23:22 Local
Sunset 2018-05-22 04:25:29 UTC / 2018-05-22 04:25:29 Local
Advertisement - Login to hide

Runways

ID Width Length Bearing (true) Bearing (mag) Surface Threshold Offset Overrun Length
05 98 ft / 30 m 4,193 ft / 1,278 m 71.76° 54.30° Asphalt 0 ft / 0 m 0 ft / 0 m
23 98 ft / 30 m 4,193 ft / 1,278 m 251.78° 234.32° Asphalt 115 ft / 35 m 0 ft / 0 m

Map

Weather


0- 5 10 15 20 25 30 35+ Temperature / ° C

Clouds and Precipitation
Forecast for 2018-05-22 00:00 UTC. Updated 2 hours ago

Ground ~20,000 ft ~40,000 ft Winds

METAR

CYBD 220000Z 26018G27KT 15SM FEW078 OVC097 18/09 A2999 RMK ACC1AS8 ACC TR SLP157 DENSITY ALT 400FT

TAF

Not found

Frequencies

Unicom 122.80 MHz CTAF
Warning: Do not use this data for real-world aviation or navigation. No guarantee of current accuracy is given.